Flight Track Log - Related Links

Times and Time Zones

All times are in EDT time to prevent confusion due to time zone crossing. See the FCM2222 flight status page for this flight to view local times or setup timezone preferences in your user account.

Time Position Orientation Groundspeed Altitude Reporting Facility
EDT Latitude Longitude Course Direction KTS MPH feet Rate Location/Type
Mon 05:22:00 AM 60.4834 22.7406 97° East  Level Estimated
Mon 05:23:00 AM 60.4728 22.8997 98° East  Level Estimated
Mon 05:24:00 AM 60.4620 23.0586 98° East  Level Estimated
Mon 05:25:00 AM 60.4504 23.2274 98° East  Level Estimated
Mon 05:26:00 AM 60.4384 23.3960 98° East  Level Estimated
Mon 05:27:00 AM 60.4263 23.5646 98° East  Level Estimated
Mon 05:28:00 AM 60.4140 23.7330 98° East  Level Estimated
Mon 05:29:00 AM 60.4015 23.9012 99° East  Level Estimated
Mon 05:30:00 AM 60.3887 24.0693 99° East  Level Estimated
Mon 05:31:00 AM 60.3758 24.2374 99° East  Level Estimated
Mon 05:32:00 AM 60.3626 24.4052 99° East  Level Estimated
Mon 05:33:00 AM 60.3492 24.5730 99° East  Level Estimated
Mon 05:34:00 AM 60.3356 24.7406 99° East  Level Estimated
Mon 05:35:00 AM 60.3218 24.9080 99° East  Level Estimated
Mon 05:36:00 AM 60.3172 24.9633 100° East  Level Estimated
Mon 05:37:00 AM 60.3172 24.9633 North  Level Estimated
Mon 05:38:00 AM 60.3172 24.9633 North  Level Estimated
Mon 05:39:00 AM 60.3172 24.9633 North  Level Estimated
Mon 05:40:00 AM 60.3172 24.9633 North  Level Estimated
Mon 05:41:00 AM 60.3172 24.9633 North  Level Estimated
Mon 05:42:00 AM 60.3172 24.9633 North  Level Estimated
Mon 05:43:00 AM 60.3172 24.9633 North  Level Estimated
Mon 05:44:00 AM 60.3172 24.9633 North  Level Estimated

Login

Don't have an account? Register now (free) for customized features, flight alerts, and more!